createdAt,value
2023-03-04T00:00:00.788Z,55.60
2023-03-04T00:02:27.637Z,51.27
2023-03-04T00:04:54.440Z,52.00
2023-03-04T00:07:21.324Z,45.80
2023-03-04T00:09:48.246Z,37.90
2023-03-04T00:12:15.246Z,39.63
2023-03-04T00:14:42.229Z,38.83
2023-03-04T00:17:09.115Z,42.17
2023-03-04T00:19:36.263Z,42.47
2023-03-04T00:22:04.568Z,39.70
2023-03-04T00:24:32.333Z,40.20
2023-03-04T00:26:59.391Z,40.33
2023-03-04T00:29:26.797Z,37.17
2023-03-04T00:31:54.228Z,40.43
2023-03-04T00:34:21.380Z,33.43
2023-03-04T00:36:48.251Z,35.67
2023-03-04T00:39:15.639Z,30.87
2023-03-04T00:41:42.771Z,33.53
2023-03-04T00:44:09.856Z,31.33
2023-03-04T00:46:36.742Z,31.17
2023-03-04T00:49:03.861Z,33.23
2023-03-04T00:51:30.715Z,29.77
2023-03-04T00:53:59.720Z,28.07
2023-03-04T00:56:28.018Z,30.17
2023-03-04T00:58:55.294Z,29.30
2023-03-04T01:01:22.429Z,26.17
2023-03-04T01:03:49.400Z,29.03
2023-03-04T01:06:16.509Z,26.93
2023-03-04T01:08:43.436Z,21.93
2023-03-04T01:11:10.368Z,22.17
2023-03-04T01:13:37.185Z,19.73
2023-03-04T01:16:05.079Z,21.37
2023-03-04T01:18:32.334Z,19.73
2023-03-04T01:20:59.246Z,17.33
2023-03-04T01:23:26.157Z,14.60
2023-03-04T01:25:53.219Z,16.73
2023-03-04T01:28:20.074Z,16.60
2023-03-04T01:30:46.986Z,13.97
2023-03-04T01:33:13.919Z,15.77
2023-03-04T01:35:40.752Z,13.97
2023-03-04T01:38:07.804Z,14.97
2023-03-04T01:40:34.854Z,24.33
2023-03-04T01:43:01.735Z,18.20
2023-03-04T01:45:29.722Z,14.83
2023-03-04T01:47:56.529Z,17.07
2023-03-04T01:50:33.804Z,15.93
2023-03-04T01:53:02.406Z,20.20
2023-03-04T01:55:30.789Z,15.77
2023-03-04T01:57:57.801Z,14.10
2023-03-04T02:00:35.138Z,17.60
2023-03-04T02:03:11.314Z,21.70
2023-03-04T02:05:42.211Z,18.50
2023-03-04T02:08:09.590Z,18.67
2023-03-04T02:10:37.035Z,18.27
2023-03-04T02:13:04.770Z,17.80
2023-03-04T02:15:32.241Z,18.47
2023-03-04T02:17:59.531Z,19.40
2023-03-04T02:20:48.550Z,17.80
2023-03-04T02:23:30.445Z,17.47
2023-03-04T02:26:21.651Z,18.30
2023-03-04T02:28:51.977Z,18.93
2023-03-04T02:31:36.076Z,19.83
2023-03-04T02:34:08.209Z,21.87
2023-03-04T02:36:36.506Z,19.93
2023-03-04T02:39:25.506Z,22.57
2023-03-04T02:41:55.635Z,22.60
2023-03-04T02:44:32.868Z,18.90
2023-03-04T02:46:59.648Z,19.37
2023-03-04T02:49:30.137Z,23.30
2023-03-04T02:52:08.394Z,17.93
2023-03-04T02:54:35.590Z,20.93
2023-03-04T02:57:06.967Z,20.63
2023-03-04T02:59:33.929Z,17.43
2023-03-04T03:02:00.798Z,19.20
2023-03-04T03:04:28.538Z,18.07
2023-03-04T03:06:55.666Z,21.43
2023-03-04T03:09:22.694Z,18.93
2023-03-04T03:11:49.518Z,18.97
2023-03-04T03:14:16.603Z,21.70
2023-03-04T03:16:43.474Z,18.10
2023-03-04T03:19:10.295Z,20.67
2023-03-04T03:21:37.101Z,19.70
2023-03-04T03:24:04.054Z,20.77
2023-03-04T03:26:30.886Z,18.33
2023-03-04T03:28:57.667Z,18.63
2023-03-04T03:31:24.518Z,14.27
2023-03-04T03:33:51.390Z,16.43
2023-03-04T03:36:18.222Z,17.87
2023-03-04T03:38:45.015Z,19.93
2023-03-04T03:41:11.825Z,16.17
2023-03-04T03:43:38.638Z,14.23
2023-03-04T03:46:05.634Z,16.87
2023-03-04T03:48:32.515Z,19.73
2023-03-04T03:50:59.295Z,13.83
2023-03-04T03:53:26.073Z,15.87
2023-03-04T03:55:52.910Z,15.40
2023-03-04T03:58:19.820Z,15.83
2023-03-04T04:00:46.626Z,15.23
2023-03-04T04:03:16.527Z,15.50
2023-03-04T04:05:43.541Z,15.83
2023-03-04T04:08:17.882Z,14.37
2023-03-04T04:10:45.075Z,17.70
2023-03-04T04:13:12.273Z,16.47
2023-03-04T04:15:40.049Z,18.20
2023-03-04T04:18:07.921Z,21.37
2023-03-04T04:20:35.992Z,19.40
2023-03-04T04:23:03.842Z,16.70
2023-03-04T04:25:30.795Z,20.90
2023-03-04T04:27:57.629Z,11.27
2023-03-04T04:30:24.782Z,17.07
2023-03-04T04:32:52.324Z,13.00
2023-03-04T04:35:19.492Z,21.30
2023-03-04T04:37:46.573Z,17.00
2023-03-04T04:40:14.162Z,14.03
2023-03-04T04:42:40.978Z,12.57
2023-03-04T04:45:08.770Z,13.57
2023-03-04T04:47:35.629Z,16.67
2023-03-04T04:50:03.320Z,13.90
2023-03-04T04:52:30.158Z,14.23
2023-03-04T04:54:57.063Z,15.37
2023-03-04T04:57:24.068Z,12.90
2023-03-04T04:59:50.898Z,16.10
2023-03-04T05:02:17.836Z,17.07
2023-03-04T05:04:44.608Z,15.03
2023-03-04T05:07:11.434Z,13.47
2023-03-04T05:09:38.444Z,15.03
2023-03-04T05:12:05.493Z,19.37
2023-03-04T05:14:32.316Z,16.50
2023-03-04T05:16:59.344Z,15.17
2023-03-04T05:19:26.192Z,18.80
2023-03-04T05:21:52.974Z,16.67
2023-03-04T05:24:20.012Z,17.73
2023-03-04T05:26:47.336Z,18.13
2023-03-04T05:29:14.195Z,15.80
2023-03-04T05:31:41.124Z,19.20
2023-03-04T05:34:07.957Z,18.60
2023-03-04T05:36:34.724Z,16.47
2023-03-04T05:39:01.555Z,14.50
2023-03-04T05:41:28.363Z,18.53
2023-03-04T05:43:56.447Z,20.40
2023-03-04T05:46:25.437Z,16.20
2023-03-04T05:48:54.481Z,16.67
2023-03-04T05:51:23.149Z,21.47
2023-03-04T05:53:50.213Z,20.63
2023-03-04T05:56:19.853Z,21.90
2023-03-04T05:58:49.506Z,15.33
2023-03-04T06:01:17.236Z,16.97
2023-03-04T06:03:44.598Z,15.57
2023-03-04T06:06:11.637Z,17.97
2023-03-04T06:08:38.678Z,11.27
2023-03-04T06:11:06.509Z,14.23
2023-03-04T06:13:34.724Z,11.43
2023-03-04T06:16:01.590Z,14.50
2023-03-04T06:18:29.385Z,14.27
2023-03-04T06:21:02.027Z,15.83
2023-03-04T06:23:30.196Z,16.00
2023-03-04T06:25:59.393Z,14.13
2023-03-04T06:28:26.483Z,11.57
2023-03-04T06:30:54.921Z,15.17
2023-03-04T06:33:22.029Z,14.87
2023-03-04T06:35:49.050Z,12.23
2023-03-04T06:38:15.929Z,17.30
2023-03-04T06:40:42.719Z,12.07
2023-03-04T06:43:09.581Z,12.17
2023-03-04T06:45:39.109Z,13.87
2023-03-04T06:48:06.417Z,13.03
2023-03-04T06:50:33.210Z,15.53
2023-03-04T06:52:59.957Z,13.60
2023-03-04T06:55:26.863Z,12.30
2023-03-04T06:57:53.630Z,16.13
2023-03-04T07:00:20.878Z,19.50
2023-03-04T07:02:47.733Z,15.00
2023-03-04T07:05:14.613Z,10.33
2023-03-04T07:07:41.551Z,11.37
2023-03-04T07:10:10.305Z,14.57
2023-03-04T07:12:37.315Z,17.60
2023-03-04T07:15:04.714Z,9.83
2023-03-04T07:17:31.550Z,7.23
2023-03-04T07:19:58.381Z,10.07
2023-03-04T07:22:25.215Z,7.93
2023-03-04T07:24:51.997Z,6.70
2023-03-04T07:27:18.785Z,11.27
2023-03-04T07:29:45.596Z,15.83
2023-03-04T07:32:12.656Z,10.33
2023-03-04T07:34:39.490Z,8.83
2023-03-04T07:37:06.288Z,9.90
2023-03-04T07:39:33.141Z,8.13
2023-03-04T07:42:00.273Z,11.87
2023-03-04T07:44:27.281Z,11.83
2023-03-04T07:46:54.115Z,9.90
2023-03-04T07:49:27.586Z,9.33
2023-03-04T07:51:54.390Z,9.63
2023-03-04T07:54:21.603Z,11.50
2023-03-04T07:56:48.410Z,7.17
2023-03-04T07:59:15.193Z,9.13
2023-03-04T08:01:43.228Z,11.73
2023-03-04T08:04:10.971Z,10.33
2023-03-04T08:06:40.810Z,10.37
2023-03-04T08:09:10.808Z,7.03
2023-03-04T08:11:38.497Z,6.83
2023-03-04T08:14:06.367Z,8.43
2023-03-04T08:16:33.520Z,11.73
2023-03-04T08:19:02.995Z,5.90
2023-03-04T08:21:30.666Z,10.70
2023-03-04T08:24:06.922Z,10.00
2023-03-04T08:26:43.074Z,9.70
2023-03-04T08:29:15.086Z,6.47
2023-03-04T08:31:42.068Z,8.53
2023-03-04T08:34:10.478Z,8.67
2023-03-04T08:36:37.578Z,9.53
2023-03-04T08:39:05.763Z,5.23
2023-03-04T08:41:33.169Z,11.23
2023-03-04T08:44:01.325Z,6.10
2023-03-04T08:46:28.844Z,10.00
2023-03-04T08:48:55.702Z,11.43
2023-03-04T08:51:22.609Z,8.33
2023-03-04T08:53:49.402Z,8.60
2023-03-04T08:56:18.240Z,7.23
2023-03-04T08:58:45.100Z,11.87
2023-03-04T09:01:14.230Z,8.87
2023-03-04T09:03:41.932Z,8.50
2023-03-04T09:06:11.911Z,9.00
2023-03-04T09:08:38.697Z,7.27
2023-03-04T09:11:06.462Z,9.53
2023-03-04T09:13:34.349Z,8.87
2023-03-04T09:16:02.218Z,4.10
2023-03-04T09:18:29.386Z,10.07
2023-03-04T09:20:56.222Z,7.80
2023-03-04T09:23:23.214Z,4.50
2023-03-04T09:25:50.161Z,7.03
2023-03-04T09:28:19.049Z,7.67
2023-03-04T09:30:46.205Z,5.60
2023-03-04T09:33:13.824Z,3.67
2023-03-04T09:35:40.993Z,2.70
2023-03-04T09:38:08.405Z,7.43
2023-03-04T09:40:44.398Z,4.70
2023-03-04T09:43:22.520Z,10.47
2023-03-04T09:45:57.514Z,11.60
2023-03-04T09:48:29.930Z,6.20
2023-03-04T09:51:22.289Z,8.37
2023-03-04T09:54:09.744Z,6.07
2023-03-04T09:56:42.061Z,8.20
2023-03-04T09:59:17.405Z,4.70
2023-03-04T10:01:58.172Z,6.53
2023-03-04T10:04:39.995Z,6.83
2023-03-04T10:07:20.890Z,7.33
2023-03-04T10:10:02.123Z,4.83
2023-03-04T10:12:34.360Z,4.63
2023-03-04T10:15:31.898Z,7.73
2023-03-04T10:18:25.474Z,7.60
2023-03-04T10:21:03.797Z,7.47
2023-03-04T10:23:34.741Z,3.73
2023-03-04T10:26:16.886Z,4.90
2023-03-04T10:28:44.118Z,5.03
2023-03-04T10:31:27.284Z,5.47
2023-03-04T10:33:54.515Z,7.00
2023-03-04T10:36:39.646Z,4.63
2023-03-04T10:39:12.338Z,5.10
2023-03-04T10:41:45.664Z,4.97
2023-03-04T10:44:18.422Z,7.37
2023-03-04T10:46:49.247Z,6.53
2023-03-04T10:49:20.023Z,2.60
2023-03-04T10:52:04.482Z,2.60
2023-03-04T10:54:48.847Z,5.07
2023-03-04T10:57:20.789Z,3.20
2023-03-04T10:59:56.054Z,4.10
2023-03-04T11:02:32.341Z,5.90
2023-03-04T11:05:35.220Z,3.07
2023-03-04T11:08:02.053Z,9.63
2023-03-04T11:10:40.895Z,4.97
2023-03-04T11:13:24.544Z,3.00
2023-03-04T11:16:03.523Z,5.87
2023-03-04T11:18:43.861Z,5.73
2023-03-04T11:21:24.697Z,6.23
2023-03-04T11:24:27.629Z,6.93
2023-03-04T11:27:18.307Z,3.67
2023-03-04T11:30:22.675Z,5.03
2023-03-04T11:32:55.124Z,3.20
2023-03-04T11:35:52.298Z,5.60
2023-03-04T11:38:33.415Z,4.60
2023-03-04T11:41:25.120Z,5.43
2023-03-04T11:43:52.041Z,3.90
2023-03-04T11:46:51.623Z,3.60
2023-03-04T11:49:48.337Z,4.67
2023-03-04T11:52:45.599Z,5.27
2023-03-04T11:55:46.903Z,5.57
2023-03-04T11:58:28.702Z,5.10
2023-03-04T12:01:39.624Z,5.87
2023-03-04T12:04:24.827Z,8.17
2023-03-04T12:07:31.343Z,7.53
2023-03-04T12:10:28.280Z,7.50
2023-03-04T12:13:30.434Z,8.20
2023-03-04T12:16:49.847Z,7.17
2023-03-04T12:19:16.501Z,5.27
2023-03-04T12:22:22.999Z,7.90
2023-03-04T12:25:19.190Z,5.70
2023-03-04T12:28:34.087Z,6.07
2023-03-04T12:31:28.362Z,4.60
2023-03-04T12:34:31.599Z,4.67
2023-03-04T12:37:23.388Z,6.10
2023-03-04T12:40:41.206Z,5.83
2023-03-04T12:43:22.441Z,5.77
2023-03-04T12:45:57.986Z,6.00
2023-03-04T12:48:33.532Z,5.90
2023-03-04T12:51:18.824Z,6.23
2023-03-04T12:54:29.787Z,4.97
2023-03-04T12:57:25.128Z,5.90
2023-03-04T13:00:29.829Z,5.53
2023-03-04T13:03:31.658Z,10.63
2023-03-04T13:06:24.421Z,4.83
2023-03-04T13:09:04.736Z,5.53
2023-03-04T13:12:03.877Z,4.37
2023-03-04T13:14:32.530Z,5.23
2023-03-04T13:17:18.258Z,6.80
2023-03-04T13:19:47.756Z,4.67
2023-03-04T13:22:42.558Z,4.23
2023-03-04T13:25:33.850Z,6.73
2023-03-04T13:28:00.603Z,3.93
2023-03-04T13:30:35.754Z,4.90
2023-03-04T13:33:08.658Z,4.23
2023-03-04T13:35:50.233Z,4.57
2023-03-04T13:38:27.530Z,5.63
2023-03-04T13:41:24.782Z,6.93
2023-03-04T13:44:04.058Z,6.73
2023-03-04T13:46:43.605Z,7.63
2023-03-04T13:49:24.660Z,8.37
2023-03-04T13:51:52.334Z,6.97
2023-03-04T13:54:30.472Z,8.17
2023-03-04T13:57:20.672Z,9.97
2023-03-04T13:59:56.866Z,9.50
2023-03-04T14:02:27.159Z,10.47
2023-03-04T14:04:53.901Z,10.20
2023-03-04T14:07:29.681Z,10.03
2023-03-04T14:10:05.081Z,9.40
2023-03-04T14:12:51.322Z,11.30
2023-03-04T14:15:21.898Z,11.27
2023-03-04T14:17:54.713Z,10.77
2023-03-04T14:20:33.397Z,11.50
2023-03-04T14:23:04.348Z,14.00
2023-03-04T14:25:36.703Z,14.30
2023-03-04T14:28:16.653Z,12.87
2023-03-04T14:30:52.281Z,16.17
2023-03-04T14:33:25.024Z,16.73
2023-03-04T14:36:00.965Z,13.13
2023-03-04T14:38:36.802Z,13.77
2023-03-04T14:41:20.882Z,11.37
2023-03-04T14:44:22.486Z,11.87
2023-03-04T14:47:08.828Z,13.27
2023-03-04T14:49:38.650Z,16.00
2023-03-04T14:52:06.822Z,13.37
2023-03-04T14:54:41.903Z,14.73
2023-03-04T14:57:26.576Z,16.50
2023-03-04T14:59:54.348Z,14.13
2023-03-04T15:02:39.310Z,16.80
2023-03-04T15:05:26.465Z,17.60
2023-03-04T15:08:01.513Z,17.20
2023-03-04T15:10:33.878Z,16.20
2023-03-04T15:13:05.450Z,16.00
2023-03-04T15:15:46.572Z,16.53
2023-03-04T15:18:24.009Z,14.67
2023-03-04T15:21:19.648Z,18.33
2023-03-04T15:23:47.009Z,14.73
2023-03-04T15:26:14.476Z,21.20
2023-03-04T15:28:42.368Z,18.97
2023-03-04T15:31:21.862Z,16.93
2023-03-04T15:33:49.517Z,15.83
2023-03-04T15:36:21.036Z,16.77
2023-03-04T15:38:52.351Z,16.20
2023-03-04T15:41:26.307Z,15.80
2023-03-04T15:43:54.472Z,15.43
2023-03-04T15:46:21.899Z,12.60
2023-03-04T15:48:49.345Z,12.87
2023-03-04T15:51:22.161Z,14.13
2023-03-04T15:53:53.021Z,12.93
2023-03-04T15:56:27.880Z,13.97
2023-03-04T15:58:59.329Z,14.23
2023-03-04T16:01:26.263Z,17.63
2023-03-04T16:03:53.927Z,14.23
2023-03-04T16:06:23.514Z,21.93
2023-03-04T16:08:52.113Z,17.57
2023-03-04T16:11:25.873Z,22.33
2023-03-04T16:13:52.868Z,15.63
2023-03-04T16:16:20.213Z,12.43
2023-03-04T16:18:47.102Z,10.60
2023-03-04T16:21:19.056Z,13.17
2023-03-04T16:23:49.884Z,13.57
2023-03-04T16:26:23.494Z,14.47
2023-03-04T16:28:52.018Z,12.60
2023-03-04T16:31:22.032Z,8.80
2023-03-04T16:33:49.585Z,9.70
2023-03-04T16:36:24.848Z,10.90
2023-03-04T16:38:55.477Z,10.77
2023-03-04T16:41:28.010Z,11.00
2023-03-04T16:43:55.999Z,9.40
2023-03-04T16:46:23.996Z,11.53
2023-03-04T16:48:50.845Z,10.13
2023-03-04T16:51:21.629Z,12.90
2023-03-04T16:54:01.989Z,10.13
2023-03-04T16:56:29.415Z,9.27
2023-03-04T16:58:56.212Z,10.97
2023-03-04T17:01:28.943Z,11.67
2023-03-04T17:03:56.398Z,13.07
2023-03-04T17:06:24.505Z,12.03
2023-03-04T17:08:51.784Z,11.23
2023-03-04T17:11:22.669Z,14.23
2023-03-04T17:13:49.892Z,15.13
2023-03-04T17:16:17.524Z,11.67
2023-03-04T17:18:46.004Z,13.23
2023-03-04T17:21:20.603Z,12.50
2023-03-04T17:23:47.533Z,12.63
2023-03-04T17:26:15.533Z,11.67
2023-03-04T17:28:43.042Z,12.17
2023-03-04T17:31:17.726Z,10.73
2023-03-04T17:33:46.448Z,15.10
2023-03-04T17:36:16.020Z,9.67
2023-03-04T17:38:43.552Z,11.07
2023-03-04T17:41:17.309Z,13.33
2023-03-04T17:43:46.776Z,10.83
2023-03-04T17:46:16.948Z,7.63
2023-03-04T17:48:44.522Z,10.43
2023-03-04T17:51:12.283Z,8.13
2023-03-04T17:53:39.559Z,10.30
2023-03-04T17:56:08.993Z,7.97
2023-03-04T17:58:36.802Z,11.20
2023-03-04T18:01:14.793Z,10.07
2023-03-04T18:03:41.636Z,7.97
2023-03-04T18:06:08.429Z,8.57
2023-03-04T18:08:35.212Z,6.20
2023-03-04T18:11:02.476Z,9.53
2023-03-04T18:13:29.448Z,10.00
2023-03-04T18:15:56.812Z,7.80
2023-03-04T18:18:23.735Z,7.90
2023-03-04T18:20:57.407Z,10.10
2023-03-04T18:23:24.288Z,11.17
2023-03-04T18:25:51.202Z,7.17
2023-03-04T18:28:18.101Z,11.43
2023-03-04T18:30:44.983Z,8.03
2023-03-04T18:33:12.158Z,6.27
2023-03-04T18:35:39.183Z,6.57
2023-03-04T18:38:06.038Z,8.30
2023-03-04T18:40:32.948Z,10.27
2023-03-04T18:43:00.172Z,7.63
2023-03-04T18:45:27.895Z,8.37
2023-03-04T18:47:54.858Z,9.37
2023-03-04T18:50:22.024Z,9.27
2023-03-04T18:52:52.562Z,9.93
2023-03-04T18:55:21.484Z,11.23
2023-03-04T18:57:53.496Z,10.00
2023-03-04T19:00:23.744Z,10.13
2023-03-04T19:03:06.589Z,11.40
2023-03-04T19:05:34.379Z,8.30
2023-03-04T19:08:01.323Z,10.13
2023-03-04T19:10:29.106Z,9.57
2023-03-04T19:12:57.547Z,8.23
2023-03-04T19:15:24.530Z,9.33
2023-03-04T19:17:52.187Z,9.00
2023-03-04T19:20:19.304Z,14.03
2023-03-04T19:22:46.344Z,9.47
2023-03-04T19:25:14.229Z,10.80
2023-03-04T19:27:41.021Z,8.80
2023-03-04T19:30:08.880Z,9.47
2023-03-04T19:32:35.797Z,9.13
2023-03-04T19:35:02.904Z,7.27
2023-03-04T19:37:30.195Z,7.17
2023-03-04T19:39:57.020Z,7.00
2023-03-04T19:42:24.292Z,7.53
2023-03-04T19:44:51.527Z,7.83
2023-03-04T19:47:18.428Z,9.33
2023-03-04T19:49:45.392Z,6.80
2023-03-04T19:52:12.315Z,9.10
2023-03-04T19:54:39.169Z,5.00
2023-03-04T19:57:05.982Z,7.83
2023-03-04T19:59:34.753Z,6.10
2023-03-04T20:02:02.016Z,7.07
2023-03-04T20:04:28.985Z,7.07
2023-03-04T20:06:55.833Z,8.87
2023-03-04T20:09:22.967Z,8.27
2023-03-04T20:11:59.189Z,6.57
2023-03-04T20:14:27.719Z,10.33
2023-03-04T20:16:58.678Z,9.50
2023-03-04T20:19:25.452Z,10.97
2023-03-04T20:21:52.251Z,7.07
2023-03-04T20:24:19.999Z,6.53
2023-03-04T20:26:46.824Z,10.10
2023-03-04T20:29:13.686Z,9.73
2023-03-04T20:31:40.855Z,9.17
2023-03-04T20:34:08.534Z,7.23
2023-03-04T20:36:35.948Z,6.80
2023-03-04T20:39:08.194Z,8.97
2023-03-04T20:41:39.796Z,6.77
2023-03-04T20:44:06.847Z,5.60
2023-03-04T20:46:46.132Z,7.07
2023-03-04T20:49:23.293Z,6.03
2023-03-04T20:51:52.368Z,8.93
2023-03-04T20:54:19.721Z,10.00
2023-03-04T20:56:47.544Z,8.33
2023-03-04T20:59:14.570Z,6.50
2023-03-04T21:01:44.438Z,10.43
2023-03-04T21:04:11.875Z,7.17
2023-03-04T21:06:40.448Z,5.73
2023-03-04T21:09:14.720Z,7.53
2023-03-04T21:11:42.603Z,8.97
2023-03-04T21:14:23.055Z,11.00
2023-03-04T21:16:57.658Z,9.73
2023-03-04T21:19:36.438Z,12.30
2023-03-04T21:22:04.393Z,12.30
2023-03-04T21:24:35.487Z,12.83
2023-03-04T21:27:04.615Z,7.03
2023-03-04T21:29:31.813Z,4.93
2023-03-04T21:32:23.240Z,7.13
2023-03-04T21:34:52.559Z,11.50
2023-03-04T21:37:21.087Z,9.23
2023-03-04T21:39:48.061Z,13.00
2023-03-04T21:42:14.942Z,8.90
2023-03-04T21:44:50.908Z,8.23
2023-03-04T21:47:22.383Z,7.83
2023-03-04T21:49:50.067Z,6.87
2023-03-04T21:52:19.381Z,6.47
2023-03-04T21:54:46.555Z,11.20
2023-03-04T21:57:14.244Z,9.87
2023-03-04T21:59:41.230Z,6.77
2023-03-04T22:02:16.057Z,10.27
2023-03-04T22:04:43.019Z,9.73
2023-03-04T22:07:10.172Z,7.80
2023-03-04T22:09:37.249Z,9.73
2023-03-04T22:12:04.225Z,5.87
2023-03-04T22:14:32.109Z,5.40
2023-03-04T22:16:59.211Z,10.17
2023-03-04T22:19:31.287Z,8.60
2023-03-04T22:21:59.263Z,5.17
2023-03-04T22:24:26.311Z,14.57
2023-03-04T22:26:53.511Z,10.77
2023-03-04T22:29:20.383Z,9.27
2023-03-04T22:31:47.827Z,7.47
2023-03-04T22:34:15.820Z,6.00
2023-03-04T22:36:46.433Z,8.67
2023-03-04T22:39:19.169Z,11.53
2023-03-04T22:41:46.700Z,9.40
2023-03-04T22:44:14.096Z,9.17
2023-03-04T22:46:41.682Z,7.07
2023-03-04T22:49:11.873Z,9.73
2023-03-04T22:51:44.063Z,10.10
2023-03-04T22:54:14.124Z,7.80
2023-03-04T22:56:41.103Z,9.40
2023-03-04T22:59:08.084Z,7.37
2023-03-04T23:01:35.110Z,12.20
2023-03-04T23:04:02.609Z,7.20
2023-03-04T23:06:30.547Z,9.33
2023-03-04T23:09:03.070Z,8.90
2023-03-04T23:11:35.079Z,10.20
2023-03-04T23:14:06.365Z,9.53
2023-03-04T23:16:37.173Z,11.37
2023-03-04T23:19:05.893Z,6.90
2023-03-04T23:21:33.958Z,9.47
2023-03-04T23:24:06.889Z,9.40
2023-03-04T23:26:39.852Z,12.10
2023-03-04T23:29:11.080Z,9.33
2023-03-04T23:31:37.921Z,6.27
2023-03-04T23:34:04.989Z,6.40
2023-03-04T23:36:35.145Z,9.97
2023-03-04T23:39:04.120Z,4.40
2023-03-04T23:41:32.829Z,4.50
2023-03-04T23:44:01.260Z,4.63
2023-03-04T23:46:29.212Z,5.83
2023-03-04T23:48:56.381Z,8.37
2023-03-04T23:51:28.290Z,5.87
2023-03-04T23:53:56.360Z,4.40
2023-03-04T23:56:27.731Z,9.07
2023-03-04T23:58:55.400Z,5.03
